Time;durP1;ratioP1;P1;durP2;ratioP2;P2;SDS_P1;SDS_P2;PMS_P1;PMS_P2;Temp;Humidity;BMP_temperature;BMP_pressure;BME280_temperature;BME280_humidity;BME280_pressure;Samples;Min_cycle;Max_cycle;Signal;HPM_P1;HPM_P2
2023/09/25 00:00:34;;;;;;;;;;;14.10;76.70;;;;;;5064989;28;19995;-71
2023/09/25 00:03:03;;;;;;;;;;;14.10;76.70;;;;;;5065477;28;19979;-70
2023/09/25 00:05:30;;;;;;;;;;;14.00;76.60;;;;;;5060406;28;19979;-71
2023/09/25 00:07:58;;;;;;;;;;;14.00;76.60;;;;;;5067723;28;20525;-72
2023/09/25 00:10:24;;;;;;;;;;;13.90;76.50;;;;;;5061165;28;20503;-70
2023/09/25 00:12:51;;;;;;;;;;;13.90;76.60;;;;;;5065673;28;19979;-70
2023/09/25 00:15:18;;;;;;;;;;;13.90;76.60;;;;;;5062794;28;19976;-70
2023/09/25 00:17:44;;;;;;;;;;;13.90;76.60;;;;;;5064417;28;20058;-70
2023/09/25 00:20:12;;;;;;;;;;;13.90;76.70;;;;;;5065545;28;19996;-71
2023/09/25 00:22:38;;;;;;;;;;;13.90;76.60;;;;;;5065623;28;20011;-70
2023/09/25 00:25:06;;;;;;;;;;;13.90;76.70;;;;;;5063857;28;19982;-70
2023/09/25 00:27:33;;;;;;;;;;;13.80;76.70;;;;;;5065287;28;20006;-71
2023/09/25 00:30:03;;;;;;;;;;;13.80;76.70;;;;;;5065000;28;20038;-70
2023/09/25 00:32:30;;;;;;;;;;;13.80;76.70;;;;;;5064633;28;20725;-71
2023/09/25 00:34:56;;;;;;;;;;;13.70;76.70;;;;;;5060812;28;20362;-71
2023/09/25 00:37:23;;;;;;;;;;;13.70;76.80;;;;;;5063612;28;19976;-70
2023/09/25 00:39:49;;;;;;;;;;;13.70;76.80;;;;;;5063712;28;19990;-69
2023/09/25 00:42:17;;;;;;;;;;;13.70;76.90;;;;;;5060930;28;19980;-70
2023/09/25 00:44:44;;;;;;;;;;;13.70;76.90;;;;;;5065691;28;19983;-70
2023/09/25 00:47:10;;;;;;;;;;;13.70;77.00;;;;;;5067377;28;19987;-71
2023/09/25 00:49:37;;;;;;;;;;;13.60;77.00;;;;;;5066298;28;20070;-70
2023/09/25 00:52:04;;;;;;;;;;;13.60;77.00;;;;;;5066204;28;20490;-72
2023/09/25 00:54:33;;;;;;;;;;;13.60;77.00;;;;;;5008467;28;1732643;-71
2023/09/25 00:57:00;;;;;;;;;;;13.50;77.00;;;;;;5066418;28;19976;-71
2023/09/25 00:59:28;;;;;;;;;;;13.50;77.00;;;;;;5069435;28;20422;-70
2023/09/25 01:01:55;;;;;;;;;;;13.50;77.10;;;;;;5068643;28;20822;-70
2023/09/25 01:04:23;;;;;;;;;;;13.50;77.10;;;;;;5070145;28;19979;-70
2023/09/25 01:06:50;;;;;;;;;;;13.40;77.20;;;;;;5068118;28;19996;-71
2023/09/25 01:09:17;;;;;;;;;;;13.40;77.20;;;;;;5064265;28;19999;-70
2023/09/25 01:11:43;;;;;;;;;;;13.40;77.20;;;;;;5064866;28;19995;-70
2023/09/25 01:14:10;;;;;;;;;;;13.40;77.30;;;;;;5067623;28;20617;-71
2023/09/25 01:16:38;;;;;;;;;;;13.40;77.30;;;;;;5062809;28;20409;-71
2023/09/25 01:19:06;;;;;;;;;;;13.30;77.40;;;;;;5065475;28;19986;-71
2023/09/25 01:21:34;;;;;;;;;;;13.30;77.60;;;;;;5068074;28;20074;-70
2023/09/25 01:24:02;;;;;;;;;;;13.30;77.40;;;;;;5068088;28;19979;-71
2023/09/25 01:26:29;;;;;;;;;;;13.20;77.50;;;;;;5065250;28;20041;-70
2023/09/25 01:28:55;;;;;;;;;;;13.20;77.40;;;;;;5062794;28;20002;-71
2023/09/25 01:31:22;;;;;;;;;;;13.20;77.50;;;;;;5064067;28;19998;-71
2023/09/25 01:33:49;;;;;;;;;;;13.20;77.50;;;;;;5068448;28;19982;-70
2023/09/25 01:36:16;;;;;;;;;;;13.20;77.60;;;;;;5062681;28;19979;-71
2023/09/25 01:38:43;;;;;;;;;;;13.10;77.50;;;;;;5066414;28;19976;-71
2023/09/25 01:41:10;;;;;;;;;;;13.10;77.50;;;;;;5064767;28;19998;-71
2023/09/25 01:43:37;;;;;;;;;;;13.10;77.50;;;;;;5067977;28;19980;-71
2023/09/25 01:46:04;;;;;;;;;;;13.00;77.50;;;;;;5067251;28;20006;-70
2023/09/25 01:48:30;;;;;;;;;;;13.10;77.70;;;;;;5067531;28;19983;-70
2023/09/25 01:50:57;;;;;;;;;;;13.10;77.70;;;;;;5064827;28;19999;-71
2023/09/25 01:53:24;;;;;;;;;;;13.00;77.70;;;;;;5067705;28;19983;-69
2023/09/25 01:55:50;;;;;;;;;;;13.00;77.80;;;;;;5066673;28;20006;-69
2023/09/25 01:58:18;;;;;;;;;;;13.00;77.80;;;;;;5067143;28;19975;-70
2023/09/25 02:00:45;;;;;;;;;;;13.00;77.90;;;;;;5067848;28;20034;-69
2023/09/25 02:03:11;;;;;;;;;;;12.90;77.80;;;;;;5064603;28;19994;-71
2023/09/25 02:05:38;;;;;;;;;;;12.90;77.90;;;;;;5064896;28;19975;-71
2023/09/25 02:08:05;;;;;;;;;;;12.90;77.90;;;;;;5067339;28;20074;-69
2023/09/25 02:10:33;;;;;;;;;;;12.90;78.00;;;;;;5065217;28;19995;-70
2023/09/25 02:13:00;;;;;;;;;;;12.80;78.00;;;;;;5067498;28;19979;-70
2023/09/25 02:15:27;;;;;;;;;;;12.80;78.00;;;;;;5066607;28;20002;-70
2023/09/25 02:17:53;;;;;;;;;;;12.80;78.10;;;;;;5065579;28;20368;-70
2023/09/25 02:20:20;;;;;;;;;;;12.80;78.10;;;;;;5065691;28;19991;-69
2023/09/25 02:22:47;;;;;;;;;;;12.70;78.00;;;;;;5066311;28;20485;-69
2023/09/25 02:25:14;;;;;;;;;;;12.70;78.10;;;;;;5066117;28;19980;-70
2023/09/25 02:27:40;;;;;;;;;;;12.70;78.10;;;;;;5067373;28;19976;-69
2023/09/25 02:30:08;;;;;;;;;;;12.70;78.20;;;;;;5065828;28;20015;-70
2023/09/25 02:32:36;;;;;;;;;;;12.70;78.20;;;;;;5064047;28;19997;-70
2023/09/25 02:35:03;;;;;;;;;;;12.60;78.20;;;;;;5064484;28;19990;-71
2023/09/25 02:37:30;;;;;;;;;;;12.60;78.30;;;;;;5065656;28;19983;-70
2023/09/25 02:39:57;;;;;;;;;;;12.60;78.30;;;;;;5062073;28;20477;-70
2023/09/25 02:42:23;;;;;;;;;;;12.60;78.40;;;;;;5065277;28;19980;-70
2023/09/25 02:44:51;;;;;;;;;;;12.60;78.50;;;;;;5066847;28;19991;-70
2023/09/25 02:47:18;;;;;;;;;;;12.50;78.50;;;;;;5062861;28;19991;-70
2023/09/25 02:49:45;;;;;;;;;;;12.50;78.60;;;;;;5057445;28;20549;-70
2023/09/25 02:52:12;;;;;;;;;;;12.50;78.60;;;;;;5064520;28;20657;-70
2023/09/25 02:54:39;;;;;;;;;;;12.50;78.60;;;;;;5065271;28;20343;-70
2023/09/25 02:57:05;;;;;;;;;;;12.50;78.70;;;;;;5064153;28;20035;-69
2023/09/25 02:59:32;;;;;;;;;;;12.40;78.80;;;;;;5066154;28;19983;-69
2023/09/25 03:01:58;;;;;;;;;;;12.40;78.80;;;;;;5065690;28;20010;-71
2023/09/25 03:04:25;;;;;;;;;;;12.40;78.80;;;;;;5064092;28;20010;-70
2023/09/25 03:06:53;;;;;;;;;;;12.30;78.90;;;;;;5063742;28;19983;-70
2023/09/25 03:09:19;;;;;;;;;;;12.30;79.00;;;;;;5060778;28;19975;-70
2023/09/25 03:11:46;;;;;;;;;;;12.30;79.00;;;;;;5063814;28;19995;-69
2023/09/25 03:14:13;;;;;;;;;;;12.30;79.10;;;;;;5068348;28;20599;-70
2023/09/25 03:16:40;;;;;;;;;;;12.30;79.20;;;;;;5065637;28;20031;-69
2023/09/25 03:19:06;;;;;;;;;;;12.30;79.30;;;;;;5061410;28;19979;-70
2023/09/25 03:21:33;;;;;;;;;;;12.20;79.20;;;;;;5060873;28;19995;-70
2023/09/25 03:24:01;;;;;;;;;;;12.20;79.30;;;;;;5065388;28;19979;-69
2023/09/25 03:26:28;;;;;;;;;;;12.20;79.40;;;;;;5064437;28;20023;-69
2023/09/25 03:28:54;;;;;;;;;;;12.20;79.40;;;;;;5068751;28;19983;-68
2023/09/25 03:31:21;;;;;;;;;;;12.20;79.50;;;;;;5066352;28;20525;-70
2023/09/25 03:33:47;;;;;;;;;;;12.20;79.60;;;;;;5064572;28;20462;-69
2023/09/25 03:36:14;;;;;;;;;;;12.20;79.70;;;;;;5065145;28;20394;-71
2023/09/25 03:38:41;;;;;;;;;;;12.10;79.60;;;;;;5063566;28;20551;-71
2023/09/25 03:41:08;;;;;;;;;;;12.10;79.60;;;;;;5064815;28;19995;-70
2023/09/25 03:43:35;;;;;;;;;;;12.10;79.60;;;;;;5066902;28;19982;-69
2023/09/25 03:46:02;;;;;;;;;;;12.10;80.50;;;;;;5062116;28;20000;-69
2023/09/25 03:48:29;;;;;;;;;;;12.00;79.70;;;;;;5063164;28;19976;-70
2023/09/25 03:50:55;;;;;;;;;;;12.00;79.80;;;;;;5060240;28;20042;-69
2023/09/25 03:53:22;;;;;;;;;;;12.00;79.80;;;;;;5065374;28;19971;-70
2023/09/25 03:55:48;;;;;;;;;;;12.00;79.80;;;;;;5061902;28;19990;-70
2023/09/25 03:58:16;;;;;;;;;;;12.00;79.90;;;;;;5065840;28;19983;-71
2023/09/25 04:00:43;;;;;;;;;;;12.00;80.00;;;;;;5059191;28;19999;-70
2023/09/25 04:03:09;;;;;;;;;;;11.90;80.00;;;;;;5063218;28;20553;-71
2023/09/25 04:05:36;;;;;;;;;;;11.90;80.00;;;;;;5064486;28;19988;-70
2023/09/25 04:08:03;;;;;;;;;;;11.90;80.00;;;;;;5064055;28;19979;-69
2023/09/25 04:10:30;;;;;;;;;;;11.90;80.30;;;;;;5065171;28;20003;-70
2023/09/25 04:12:56;;;;;;;;;;;11.90;80.30;;;;;;5063296;28;19983;-70
2023/09/25 04:15:25;;;;;;;;;;;11.80;80.20;;;;;;5059430;28;19971;-70
2023/09/25 04:17:52;;;;;;;;;;;11.80;80.20;;;;;;5057297;28;19983;-70
2023/09/25 04:20:24;;;;;;;;;;;11.80;80.30;;;;;;5059145;28;20041;-71
2023/09/25 04:22:51;;;;;;;;;;;11.80;80.30;;;;;;5064989;28;20454;-70
2023/09/25 04:25:19;;;;;;;;;;;11.80;80.40;;;;;;5064379;28;19974;-70
2023/09/25 04:27:46;;;;;;;;;;;11.80;80.40;;;;;;5066145;28;19979;-70
2023/09/25 04:30:14;;;;;;;;;;;11.80;80.50;;;;;;5064703;28;20080;-70
2023/09/25 04:32:43;;;;;;;;;;;11.70;80.40;;;;;;5062154;28;20070;-70
2023/09/25 04:35:10;;;;;;;;;;;11.70;80.40;;;;;;5059238;28;20078;-71
2023/09/25 04:37:37;;;;;;;;;;;11.70;80.40;;;;;;5061628;28;19983;-70
2023/09/25 04:40:10;;;;;;;;;;;11.70;80.50;;;;;;5059794;28;19995;-70
2023/09/25 04:42:37;;;;;;;;;;;11.70;80.60;;;;;;5062879;28;19983;-69
2023/09/25 04:45:04;;;;;;;;;;;11.70;80.60;;;;;;5058198;28;19990;-71
2023/09/25 04:47:30;;;;;;;;;;;11.60;80.50;;;;;;5062992;28;19991;-71
2023/09/25 04:49:58;;;;;;;;;;;11.60;80.60;;;;;;5058159;28;20007;-71
2023/09/25 04:52:25;;;;;;;;;;;11.60;80.50;;;;;;5061478;28;19980;-70
2023/09/25 04:54:51;;;;;;;;;;;11.60;80.60;;;;;;5061086;28;19987;-70
2023/09/25 04:57:19;;;;;;;;;;;11.60;80.60;;;;;;5064305;28;20035;-69
2023/09/25 04:59:46;;;;;;;;;;;11.60;80.60;;;;;;5061722;28;19976;-71
2023/09/25 05:02:13;;;;;;;;;;;11.60;80.60;;;;;;5062458;28;20006;-70
2023/09/25 05:04:39;;;;;;;;;;;11.60;80.60;;;;;;5062000;28;19975;-70
2023/09/25 05:07:07;;;;;;;;;;;11.50;80.70;;;;;;5065679;28;19983;-70
2023/09/25 05:09:34;;;;;;;;;;;11.50;80.70;;;;;;5060285;28;19987;-70
2023/09/25 05:12:01;;;;;;;;;;;11.50;81.40;;;;;;5060939;28;20007;-70
2023/09/25 05:14:28;;;;;;;;;;;11.50;80.70;;;;;;5064137;28;19979;-70
2023/09/25 05:16:55;;;;;;;;;;;11.50;80.60;;;;;;5063676;28;20003;-70
2023/09/25 05:19:22;;;;;;;;;;;11.50;80.70;;;;;;5061668;28;19979;-69
2023/09/25 05:21:49;;;;;;;;;;;11.40;80.60;;;;;;5060317;28;20110;-70
2023/09/25 05:24:17;;;;;;;;;;;11.40;80.60;;;;;;5057605;28;20382;-69
2023/09/25 05:26:44;;;;;;;;;;;11.40;80.70;;;;;;5061742;28;20374;-69
2023/09/25 05:29:10;;;;;;;;;;;11.40;80.70;;;;;;5067209;28;19983;-69
2023/09/25 05:31:37;;;;;;;;;;;11.40;80.70;;;;;;5059973;28;20234;-70
2023/09/25 05:34:03;;;;;;;;;;;11.40;80.80;;;;;;5067780;28;19979;-70
2023/09/25 05:36:30;;;;;;;;;;;11.40;80.80;;;;;;5066430;28;20593;-69
2023/09/25 05:38:57;;;;;;;;;;;11.30;80.80;;;;;;5067072;28;20454;-70
2023/09/25 05:41:24;;;;;;;;;;;11.30;80.80;;;;;;5063267;28;19991;-70
2023/09/25 05:43:53;;;;;;;;;;;11.30;80.80;;;;;;5063347;28;19980;-69
2023/09/25 05:46:20;;;;;;;;;;;11.30;80.90;;;;;;5062180;28;20755;-69
2023/09/25 05:48:47;;;;;;;;;;;11.30;80.80;;;;;;5064286;28;20019;-69
2023/09/25 05:51:13;;;;;;;;;;;11.20;80.80;;;;;;5067793;28;20049;-69
2023/09/25 05:53:40;;;;;;;;;;;11.20;80.80;;;;;;5061699;28;19983;-69
2023/09/25 05:56:06;;;;;;;;;;;11.20;80.90;;;;;;5063090;28;19990;-71
2023/09/25 05:58:35;;;;;;;;;;;11.20;80.90;;;;;;5062474;28;19983;-69
2023/09/25 06:01:02;;;;;;;;;;;11.20;81.10;;;;;;5056224;28;19999;-70
2023/09/25 06:03:28;;;;;;;;;;;11.20;81.10;;;;;;5064335;28;19975;-69
2023/09/25 06:14:42;;;;;;;;;;;11.10;81.10;;;;;;5023673;28;19974;-69
2023/09/25 06:17:09;;;;;;;;;;;11.10;81.10;;;;;;5061208;28;20557;-69
2023/09/25 06:19:35;;;;;;;;;;;11.10;81.20;;;;;;5063501;28;19979;-70
2023/09/25 06:22:02;;;;;;;;;;;11.10;81.20;;;;;;5065394;28;19996;-70
2023/09/25 06:27:32;;;;;;;;;;;11.10;81.30;;;;;;5055252;28;19974;-69
2023/09/25 06:30:00;;;;;;;;;;;11.00;81.20;;;;;;5066282;28;20359;-70
2023/09/25 06:32:27;;;;;;;;;;;11.10;81.30;;;;;;5062811;28;19995;-70
2023/09/25 06:34:53;;;;;;;;;;;11.00;81.30;;;;;;5062209;28;19983;-68
2023/09/25 06:37:20;;;;;;;;;;;11.00;81.50;;;;;;5063593;28;19979;-69
2023/09/25 06:39:46;;;;;;;;;;;11.00;81.50;;;;;;5065567;28;19999;-71
2023/09/25 06:42:13;;;;;;;;;;;11.00;81.60;;;;;;5061581;28;19980;-70
2023/09/25 06:44:39;;;;;;;;;;;11.00;81.70;;;;;;5066265;28;19983;-70
2023/09/25 06:47:08;;;;;;;;;;;11.00;81.80;;;;;;5059679;28;20324;-69
2023/09/25 06:49:35;;;;;;;;;;;11.00;81.90;;;;;;5056824;28;19980;-69
2023/09/25 06:52:01;;;;;;;;;;;11.00;82.00;;;;;;5064140;28;20476;-70
2023/09/25 06:54:28;;;;;;;;;;;10.90;82.00;;;;;;5066250;28;20010;-69
2023/09/25 06:56:55;;;;;;;;;;;10.90;82.20;;;;;;5059162;28;19983;-69
2023/09/25 06:59:22;;;;;;;;;;;11.00;82.30;;;;;;5058437;28;19984;-71
2023/09/25 07:01:48;;;;;;;;;;;10.90;82.30;;;;;;5061469;28;19999;-69
2023/09/25 07:04:16;;;;;;;;;;;10.90;82.40;;;;;;5063999;28;19979;-68
2023/09/25 07:06:42;;;;;;;;;;;10.90;82.60;;;;;;5056375;28;19976;-70
2023/09/25 07:09:14;;;;;;;;;;;11.00;82.80;;;;;;5057585;28;19983;-69
2023/09/25 07:11:40;;;;;;;;;;;10.90;82.80;;;;;;5035709;28;20018;-68
2023/09/25 07:14:07;;;;;;;;;;;10.90;82.90;;;;;;5036559;28;20140;-70
2023/09/25 07:16:35;;;;;;;;;;;10.90;82.90;;;;;;5032821;28;19991;-71
2023/09/25 07:19:01;;;;;;;;;;;10.90;83.00;;;;;;5036395;28;19976;-69
2023/09/25 07:21:29;;;;;;;;;;;10.90;83.10;;;;;;5035277;28;20625;-70
2023/09/25 07:23:56;;;;;;;;;;;10.90;83.30;;;;;;5035547;28;20835;-69
2023/09/25 07:26:23;;;;;;;;;;;10.90;83.30;;;;;;5031844;28;19975;-69
2023/09/25 07:28:49;;;;;;;;;;;10.90;83.40;;;;;;5035353;28;20739;-68
2023/09/25 07:31:18;;;;;;;;;;;10.90;83.50;;;;;;5035464;28;20565;-72
2023/09/25 07:33:45;;;;;;;;;;;10.90;83.60;;;;;;5036621;28;19987;-71
2023/09/25 07:36:12;;;;;;;;;;;10.90;83.70;;;;;;5033616;28;20078;-69
2023/09/25 07:38:40;;;;;;;;;;;10.90;83.70;;;;;;5036013;28;19984;-70
2023/09/25 07:41:08;;;;;;;;;;;10.90;83.80;;;;;;5035362;28;19998;-70
2023/09/25 07:43:35;;;;;;;;;;;10.90;83.80;;;;;;5035189;28;20508;-69
2023/09/25 07:46:02;;;;;;;;;;;10.90;83.80;;;;;;5032821;28;20526;-69
2023/09/25 07:48:30;;;;;;;;;;;10.90;83.80;;;;;;5035484;28;19976;-71
2023/09/25 07:50:58;;;;;;;;;;;10.90;83.90;;;;;;5036507;28;19998;-70
2023/09/25 07:53:24;;;;;;;;;;;10.90;84.00;;;;;;5036197;28;19975;-68
2023/09/25 07:55:52;;;;;;;;;;;11.00;84.00;;;;;;5036662;28;20015;-70
2023/09/25 07:58:19;;;;;;;;;;;10.90;84.00;;;;;;5034418;28;19976;-70
2023/09/25 08:00:47;;;;;;;;;;;11.00;84.10;;;;;;5035426;28;20293;-71
2023/09/25 08:03:15;;;;;;;;;;;11.00;84.00;;;;;;5036619;28;20062;-69
2023/09/25 08:05:42;;;;;;;;;;;11.00;84.00;;;;;;5036707;28;20082;-71
2023/09/25 08:08:10;;;;;;;;;;;11.00;84.00;;;;;;5035779;28;20606;-70
2023/09/25 08:10:37;;;;;;;;;;;11.10;84.00;;;;;;5033860;28;19998;-69
2023/09/25 08:13:05;;;;;;;;;;;11.10;83.90;;;;;;5035223;28;20029;-69
2023/09/25 08:15:33;;;;;;;;;;;11.20;83.90;;;;;;5034913;28;19991;-70
2023/09/25 08:18:00;;;;;;;;;;;11.20;83.90;;;;;;5038895;28;19979;-70
2023/09/25 08:20:27;;;;;;;;;;;11.20;83.80;;;;;;5036251;28;19992;-70
2023/09/25 08:22:54;;;;;;;;;;;11.30;84.00;;;;;;5038253;28;19986;-69
2023/09/25 08:25:22;;;;;;;;;;;11.30;83.90;;;;;;5038228;28;20118;-70
2023/09/25 08:27:50;;;;;;;;;;;11.40;83.80;;;;;;5048376;28;19975;-69
2023/09/25 08:30:19;;;;;;;;;;;11.40;83.80;;;;;;5062612;28;19996;-69
2023/09/25 08:32:46;;;;;;;;;;;11.40;83.70;;;;;;5062262;28;20018;-71
2023/09/25 08:35:12;;;;;;;;;;;11.50;84.00;;;;;;5056018;28;21115;-69
2023/09/25 08:37:39;;;;;;;;;;;11.50;84.10;;;;;;5055456;28;19976;-69
2023/09/25 08:40:09;;;;;;;;;;;11.60;84.70;;;;;;5054738;28;19996;-71
2023/09/25 08:42:35;;;;;;;;;;;11.60;84.40;;;;;;5059419;28;20367;-69
2023/09/25 08:45:03;;;;;;;;;;;11.70;84.40;;;;;;5061144;28;19979;-71
2023/09/25 08:47:34;;;;;;;;;;;11.80;84.10;;;;;;5069177;28;20193;-70
2023/09/25 08:50:01;;;;;;;;;;;11.80;83.70;;;;;;5065890;28;20436;-71
2023/09/25 08:52:28;;;;;;;;;;;11.90;83.50;;;;;;5067530;28;20018;-69
2023/09/25 08:54:54;;;;;;;;;;;11.90;83.30;;;;;;5066637;28;19983;-70
2023/09/25 08:57:22;;;;;;;;;;;12.00;83.60;;;;;;5061803;28;19986;-70
2023/09/25 08:59:50;;;;;;;;;;;12.00;83.20;;;;;;5066459;28;20646;-70
2023/09/25 09:02:17;;;;;;;;;;;12.10;83.20;;;;;;5062976;28;19995;-68
2023/09/25 09:04:45;;;;;;;;;;;12.20;82.90;;;;;;5073400;28;20340;-70
2023/09/25 09:07:14;;;;;;;;;;;12.20;82.90;;;;;;5069244;28;20010;-71
2023/09/25 09:09:40;;;;;;;;;;;12.30;82.50;;;;;;5068778;28;20042;-70
2023/09/25 09:12:08;;;;;;;;;;;12.40;82.20;;;;;;5067638;28;19991;-70
2023/09/25 09:14:36;;;;;;;;;;;12.40;82.10;;;;;;5066700;28;20022;-70
2023/09/25 09:17:04;;;;;;;;;;;12.50;82.10;;;;;;5070495;28;20623;-70
2023/09/25 09:19:45;;;;;;;;;;;12.50;81.90;;;;;;5071380;28;19983;-70
2023/09/25 09:22:17;;;;;;;;;;;12.60;82.20;;;;;;5075121;28;19986;-68
2023/09/25 09:24:44;;;;;;;;;;;12.70;81.80;;;;;;5069930;28;20430;-70
2023/09/25 09:27:11;;;;;;;;;;;12.70;81.50;;;;;;5069936;28;19979;-69
2023/09/25 09:29:38;;;;;;;;;;;12.80;81.40;;;;;;5068616;28;20580;-69
2023/09/25 09:32:05;;;;;;;;;;;12.90;81.50;;;;;;5072392;28;20006;-70
2023/09/25 09:34:32;;;;;;;;;;;12.90;81.20;;;;;;5070468;28;20062;-70
2023/09/25 09:37:00;;;;;;;;;;;13.00;81.10;;;;;;5071890;28;21288;-70
2023/09/25 09:39:34;;;;;;;;;;;13.10;80.90;;;;;;5068387;28;19980;-70
2023/09/25 09:42:03;;;;;;;;;;;13.20;80.70;;;;;;5067802;28;19987;-71
2023/09/25 09:44:30;;;;;;;;;;;13.20;80.60;;;;;;5070971;28;19983;-70
2023/09/25 09:46:57;;;;;;;;;;;13.30;80.50;;;;;;5078208;28;19995;-70
2023/09/25 09:49:25;;;;;;;;;;;13.40;80.40;;;;;;5073708;28;19976;-68
2023/09/25 09:51:52;;;;;;;;;;;13.40;80.20;;;;;;5067359;28;20002;-70
2023/09/25 09:54:19;;;;;;;;;;;13.50;80.80;;;;;;5064804;28;19987;-70
2023/09/25 09:56:48;;;;;;;;;;;13.60;80.00;;;;;;5067941;28;20473;-70
2023/09/25 09:59:15;;;;;;;;;;;13.70;80.10;;;;;;5064405;28;20029;-70
2023/09/25 10:01:43;;;;;;;;;;;13.70;80.10;;;;;;5078345;28;19995;-71
2023/09/25 10:04:10;;;;;;;;;;;13.80;79.90;;;;;;5069312;28;19986;-70
2023/09/25 10:06:43;;;;;;;;;;;13.80;79.70;;;;;;5070836;28;19986;-70
2023/09/25 10:09:11;;;;;;;;;;;13.90;79.50;;;;;;5067316;28;19979;-69
2023/09/25 10:11:37;;;;;;;;;;;14.00;79.50;;;;;;5069276;28;19998;-69
2023/09/25 10:14:08;;;;;;;;;;;14.10;79.90;;;;;;5073543;28;19979;-70
2023/09/25 10:17:04;;;;;;;;;;;14.10;79.10;;;;;;5069295;28;20590;-71
2023/09/25 10:19:45;;;;;;;;;;;14.20;78.90;;;;;;4970767;28;19981;-70
2023/09/25 10:22:12;;;;;;;;;;;14.30;78.70;;;;;;5056009;28;19986;-71
2023/09/25 10:24:41;;;;;;;;;;;14.40;78.50;;;;;;5066026;28;19976;-70
2023/09/25 10:27:10;;;;;;;;;;;14.50;78.40;;;;;;5065302;28;20620;-70
2023/09/25 10:29:38;;;;;;;;;;;14.50;77.80;;;;;;5065933;28;19975;-69
2023/09/25 10:32:09;;;;;;;;;;;14.60;77.80;;;;;;5071130;28;20022;-70
2023/09/25 10:34:39;;;;;;;;;;;14.70;77.60;;;;;;5066077;28;19979;-71
2023/09/25 10:37:05;;;;;;;;;;;14.80;77.70;;;;;;5063893;28;19980;-70
2023/09/25 10:39:32;;;;;;;;;;;14.80;77.00;;;;;;5071544;28;20382;-70
2023/09/25 10:42:02;;;;;;;;;;;14.90;76.80;;;;;;5064680;28;19991;-70
2023/09/25 10:44:30;;;;;;;;;;;15.00;76.90;;;;;;5073253;28;20332;-70
2023/09/25 10:47:00;;;;;;;;;;;15.10;76.70;;;;;;5070753;28;20091;-70
2023/09/25 10:49:28;;;;;;;;;;;15.10;76.60;;;;;;5066495;28;19987;-70
2023/09/25 10:51:55;;;;;;;;;;;15.20;76.40;;;;;;5063344;28;19998;-70
2023/09/25 10:54:22;;;;;;;;;;;15.30;76.40;;;;;;5065785;28;20127;-69
2023/09/25 10:56:48;;;;;;;;;;;15.40;76.10;;;;;;5063374;28;19983;-70
2023/09/25 10:59:15;;;;;;;;;;;15.40;75.90;;;;;;5057231;28;20735;-69
2023/09/25 11:01:41;;;;;;;;;;;15.50;75.70;;;;;;5067957;28;19995;-70
2023/09/25 11:04:11;;;;;;;;;;;15.60;75.60;;;;;;5068220;28;19983;-70
2023/09/25 11:06:37;;;;;;;;;;;15.60;75.70;;;;;;5065544;28;20238;-70
2023/09/25 11:09:07;;;;;;;;;;;15.70;75.50;;;;;;5069038;28;19986;-70
2023/09/25 11:11:34;;;;;;;;;;;15.70;75.20;;;;;;5065343;28;20078;-70
2023/09/25 11:14:00;;;;;;;;;;;15.80;75.00;;;;;;5062750;28;20417;-69
2023/09/25 11:16:28;;;;;;;;;;;15.90;74.90;;;;;;5065008;28;19995;-70
2023/09/25 11:19:05;;;;;;;;;;;15.90;74.70;;;;;;5065198;28;19964;-69
2023/09/25 11:21:33;;;;;;;;;;;16.00;73.90;;;;;;5063961;28;19928;-71
2023/09/25 11:23:59;;;;;;;;;;;16.10;74.30;;;;;;5065474;28;20506;-70
2023/09/25 11:26:27;;;;;;;;;;;16.20;73.90;;;;;;5070885;28;19940;-69
2023/09/25 11:28:54;;;;;;;;;;;16.20;73.90;;;;;;5068042;28;19936;-70
2023/09/25 11:31:20;;;;;;;;;;;16.30;73.80;;;;;;5065017;28;20380;-69
2023/09/25 11:33:48;;;;;;;;;;;16.30;73.00;;;;;;5074485;28;19939;-69
2023/09/25 11:36:14;;;;;;;;;;;16.40;73.10;;;;;;5066739;28;19928;-70
2023/09/25 11:38:49;;;;;;;;;;;16.50;72.80;;;;;;5071127;28;19932;-69
2023/09/25 11:41:15;;;;;;;;;;;16.50;72.70;;;;;;5064742;28;19932;-70
2023/09/25 11:43:42;;;;;;;;;;;16.60;72.60;;;;;;5068518;28;19943;-69
2023/09/25 11:46:08;;;;;;;;;;;16.70;72.40;;;;;;5068960;28;19928;-70
2023/09/25 11:48:38;;;;;;;;;;;16.70;72.40;;;;;;5071988;28;19929;-70
2023/09/25 11:51:05;;;;;;;;;;;16.80;72.20;;;;;;5065199;28;19932;-70
2023/09/25 11:53:32;;;;;;;;;;;16.80;71.90;;;;;;5072392;28;19932;-70
2023/09/25 11:56:00;;;;;;;;;;;16.90;71.40;;;;;;5065555;28;19971;-70
2023/09/25 11:58:28;;;;;;;;;;;17.00;71.70;;;;;;5058856;28;20471;-68
2023/09/25 12:00:55;;;;;;;;;;;17.00;71.40;;;;;;5067590;28;20477;-69
2023/09/25 12:03:21;;;;;;;;;;;17.10;71.40;;;;;;5067498;28;19936;-69
2023/09/25 12:05:48;;;;;;;;;;;17.20;72.00;;;;;;5069251;28;19932;-69
2023/09/25 12:08:17;;;;;;;;;;;17.20;71.10;;;;;;5070221;28;19980;-71
2023/09/25 12:10:43;;;;;;;;;;;17.30;71.00;;;;;;5070802;28;20011;-71
2023/09/25 12:13:11;;;;;;;;;;;17.40;71.00;;;;;;5062438;28;19928;-70
2023/09/25 12:15:38;;;;;;;;;;;17.40;70.70;;;;;;5070491;28;20006;-71
2023/09/25 12:18:05;;;;;;;;;;;17.50;70.70;;;;;;5069157;28;19939;-69
2023/09/25 12:20:32;;;;;;;;;;;17.50;70.10;;;;;;5072938;28;20384;-70
2023/09/25 12:22:59;;;;;;;;;;;17.60;70.40;;;;;;5068322;28;19932;-71
2023/09/25 12:25:25;;;;;;;;;;;17.70;70.30;;;;;;5070799;28;19936;-69
2023/09/25 12:27:52;;;;;;;;;;;17.70;70.10;;;;;;5063918;28;20009;-70
2023/09/25 12:30:21;;;;;;;;;;;17.80;70.10;;;;;;5066456;28;20033;-70
2023/09/25 12:32:48;;;;;;;;;;;17.80;69.90;;;;;;5069344;28;19932;-69
2023/09/25 12:35:15;;;;;;;;;;;17.90;69.90;;;;;;5066938;28;19928;-69
2023/09/25 12:37:42;;;;;;;;;;;18.00;69.70;;;;;;5065722;28;19928;-70
2023/09/25 12:40:09;;;;;;;;;;;18.00;69.50;;;;;;5065049;28;19929;-70
2023/09/25 12:42:36;;;;;;;;;;;18.10;69.20;;;;;;5074646;28;19936;-70
2023/09/25 12:45:03;;;;;;;;;;;18.20;69.30;;;;;;5075113;28;19928;-71
2023/09/25 12:47:31;;;;;;;;;;;18.20;68.90;;;;;;5068704;28;19936;-71
2023/09/25 12:49:58;;;;;;;;;;;18.20;68.90;;;;;;5071290;28;20430;-70
2023/09/25 12:52:24;;;;;;;;;;;18.30;68.70;;;;;;5065373;28;19968;-69
2023/09/25 12:54:51;;;;;;;;;;;18.30;68.70;;;;;;5075553;28;19968;-70
2023/09/25 12:57:18;;;;;;;;;;;18.40;68.80;;;;;;5064914;28;19932;-70
2023/09/25 12:59:45;;;;;;;;;;;18.50;68.70;;;;;;5072225;28;19940;-69
2023/09/25 13:02:12;;;;;;;;;;;18.50;68.30;;;;;;5070259;28;19928;-69
2023/09/25 13:04:40;;;;;;;;;;;18.60;68.50;;;;;;5075264;28;19935;-70
2023/09/25 13:07:06;;;;;;;;;;;18.60;68.20;;;;;;5073444;28;20227;-71
2023/09/25 13:09:33;;;;;;;;;;;18.70;67.80;;;;;;5068757;28;19935;-70
2023/09/25 13:12:00;;;;;;;;;;;18.70;67.80;;;;;;5068421;28;19935;-70
2023/09/25 13:14:26;;;;;;;;;;;18.80;67.80;;;;;;5070863;28;20454;-71
2023/09/25 13:16:53;;;;;;;;;;;18.90;67.90;;;;;;5072306;28;19928;-70
2023/09/25 13:19:20;;;;;;;;;;;18.90;67.50;;;;;;5066922;28;19968;-70
2023/09/25 13:21:48;;;;;;;;;;;18.90;67.20;;;;;;5071932;28;19958;-70
2023/09/25 13:24:15;;;;;;;;;;;19.00;68.00;;;;;;5067974;28;19935;-69
2023/09/25 13:26:41;;;;;;;;;;;19.10;67.30;;;;;;5069140;28;19997;-70
2023/09/25 13:29:08;;;;;;;;;;;19.10;67.20;;;;;;5070452;28;19948;-70
2023/09/25 13:31:34;;;;;;;;;;;19.20;67.40;;;;;;5070060;28;19928;-70
2023/09/25 13:34:01;;;;;;;;;;;19.20;66.00;;;;;;5068256;28;19932;-69
2023/09/25 13:36:28;;;;;;;;;;;19.30;66.10;;;;;;5067652;28;20434;-70
2023/09/25 13:38:56;;;;;;;;;;;19.30;66.00;;;;;;5069842;28;19934;-70
2023/09/25 13:41:22;;;;;;;;;;;19.30;65.00;;;;;;5073350;28;19929;-69
2023/09/25 13:43:49;;;;;;;;;;;19.40;65.50;;;;;;5064536;28;19933;-70
2023/09/25 13:46:16;;;;;;;;;;;19.40;66.00;;;;;;5071212;28;19929;-69
2023/09/25 13:48:43;;;;;;;;;;;19.50;65.40;;;;;;5069883;28;19965;-71
2023/09/25 13:51:10;;;;;;;;;;;19.60;65.40;;;;;;5070599;28;19966;-70
2023/09/25 13:53:37;;;;;;;;;;;19.60;64.50;;;;;;5066199;28;19928;-70
2023/09/25 13:56:05;;;;;;;;;;;19.60;65.30;;;;;;5069060;28;19928;-70
2023/09/25 13:58:32;;;;;;;;;;;19.70;64.40;;;;;;5064450;28;19935;-71
2023/09/25 14:01:01;;;;;;;;;;;19.80;64.40;;;;;;5069809;28;20304;-71
2023/09/25 14:03:27;;;;;;;;;;;19.80;63.70;;;;;;5071258;28;19959;-71
2023/09/25 14:05:54;;;;;;;;;;;19.90;64.20;;;;;;5068026;28;19928;-69
2023/09/25 14:08:20;;;;;;;;;;;19.90;64.00;;;;;;5072989;28;19936;-72
2023/09/25 14:10:47;;;;;;;;;;;20.00;64.40;;;;;;5070137;28;19928;-72
2023/09/25 14:13:15;;;;;;;;;;;20.00;63.90;;;;;;5068155;28;19937;-69
2023/09/25 14:15:42;;;;;;;;;;;20.10;64.00;;;;;;5070274;28;19936;-70
2023/09/25 14:18:09;;;;;;;;;;;20.20;63.50;;;;;;5067443;28;19951;-70
2023/09/25 14:20:36;;;;;;;;;;;20.20;64.00;;;;;;5069497;28;19929;-71
2023/09/25 14:23:03;;;;;;;;;;;20.30;64.40;;;;;;5070414;28;19929;-70
2023/09/25 14:25:29;;;;;;;;;;;20.30;64.00;;;;;;5069112;28;19939;-70
2023/09/25 14:27:56;;;;;;;;;;;20.30;63.50;;;;;;5068238;28;19928;-70